createdAt,value
2019-03-19T00:00:57.639Z,101159.89
2019-03-19T00:03:30.543Z,101159.13
2019-03-19T00:06:03.421Z,101158.72
2019-03-19T00:08:36.312Z,101163.94
2019-03-19T00:11:09.145Z,101172.65
2019-03-19T00:13:41.995Z,101171.44
2019-03-19T00:16:14.757Z,101172.58
2019-03-19T00:18:47.632Z,101177.80
2019-03-19T00:21:20.428Z,101180.41
2019-03-19T00:23:53.222Z,101179.86
2019-03-19T00:26:26.038Z,101183.27
2019-03-19T00:28:58.725Z,101182.37
2019-03-19T00:31:31.522Z,101189.18
2019-03-19T00:34:04.362Z,101191.38
2019-03-19T00:36:37.249Z,101189.66
2019-03-19T00:39:10.038Z,101202.34
2019-03-19T00:41:42.797Z,101203.27
2019-03-19T00:44:15.623Z,101210.92
2019-03-19T00:46:48.427Z,101210.83
2019-03-19T00:49:21.147Z,101209.87
2019-03-19T00:51:53.884Z,101211.91
2019-03-19T00:54:26.882Z,101209.58
2019-03-19T00:56:59.690Z,101210.88
2019-03-19T00:59:32.483Z,101210.41
2019-03-19T01:02:06.291Z,101213.39
2019-03-19T01:04:39.149Z,101217.48
2019-03-19T01:07:12.042Z,101220.84
2019-03-19T01:09:44.764Z,101216.83
2019-03-19T01:12:17.514Z,101220.19
2019-03-19T01:14:50.242Z,101227.19
2019-03-19T01:17:22.927Z,101224.17
2019-03-19T01:19:55.650Z,101221.43
2019-03-19T01:22:28.362Z,101223.93
2019-03-19T01:25:01.143Z,101221.02
2019-03-19T01:27:33.867Z,101223.97
2019-03-19T01:30:08.215Z,101234.08
2019-03-19T01:32:41.003Z,101234.97
2019-03-19T01:35:13.777Z,101231.95
2019-03-19T01:37:46.550Z,101233.39
2019-03-19T01:40:19.328Z,101243.92
2019-03-19T01:42:52.011Z,101243.16
2019-03-19T01:45:24.768Z,101242.52
2019-03-19T01:47:57.572Z,101236.48
2019-03-19T01:50:30.282Z,101244.78
2019-03-19T01:53:03.152Z,101243.95
2019-03-19T01:55:35.920Z,101238.27
2019-03-19T01:58:08.692Z,101238.74
2019-03-19T02:00:41.386Z,101239.84
2019-03-19T02:03:14.219Z,101236.31
2019-03-19T02:05:46.945Z,101243.23
2019-03-19T02:08:19.690Z,101241.45
2019-03-19T02:10:52.525Z,101242.75
2019-03-19T02:13:25.281Z,101246.25
2019-03-19T02:15:58.013Z,101253.59
2019-03-19T02:18:30.817Z,101255.64
2019-03-19T02:21:03.673Z,101253.86
2019-03-19T02:23:36.609Z,101264.17
2019-03-19T02:26:16.355Z,101267.53
2019-03-19T02:28:43.951Z,101267.02
2019-03-19T02:31:16.789Z,101271.50
2019-03-19T02:33:49.785Z,101279.12
2019-03-19T02:36:22.662Z,101278.81
2019-03-19T02:38:55.541Z,101279.03
2019-03-19T02:41:28.307Z,101282.53
2019-03-19T02:44:01.009Z,101282.80
2019-03-19T02:46:33.872Z,101280.20
2019-03-19T02:49:06.732Z,101291.36
2019-03-19T02:51:39.462Z,101290.42
2019-03-19T02:54:12.195Z,101295.81
2019-03-19T02:56:44.968Z,101299.31
2019-03-19T02:59:17.724Z,101301.99
2019-03-19T03:01:50.393Z,101304.30
2019-03-19T03:04:23.195Z,101308.83
2019-03-19T03:06:55.978Z,101308.87
2019-03-19T03:09:28.718Z,101318.61
2019-03-19T03:12:01.428Z,101312.28
2019-03-19T03:14:34.318Z,101323.70
2019-03-19T03:17:08.185Z,101328.16
2019-03-19T03:19:40.976Z,101323.51
2019-03-19T03:22:13.677Z,101325.08
2019-03-19T03:24:46.366Z,101334.27
2019-03-19T03:27:19.154Z,101339.48
2019-03-19T03:29:52.027Z,101344.27
2019-03-19T03:32:24.844Z,101346.55
2019-03-19T03:34:57.536Z,101349.08
2019-03-19T03:37:30.224Z,101350.48
2019-03-19T03:40:02.929Z,101354.36
2019-03-19T03:42:35.915Z,101349.97
2019-03-19T03:45:09.383Z,101351.68
2019-03-19T03:47:42.193Z,101355.45
2019-03-19T03:50:14.940Z,101362.37
2019-03-19T03:52:47.925Z,101368.47
2019-03-19T03:55:20.617Z,101370.14
2019-03-19T03:57:53.546Z,101372.45
2019-03-19T04:00:26.416Z,101380.34
2019-03-19T04:02:59.317Z,101390.38
2019-03-19T04:05:32.177Z,101393.95
2019-03-19T04:08:05.062Z,101397.80
2019-03-19T04:10:37.805Z,101397.75
2019-03-19T04:13:10.553Z,101406.50
2019-03-19T04:15:44.165Z,101412.98
2019-03-19T04:18:16.946Z,101416.10
2019-03-19T04:20:49.753Z,101419.05
2019-03-19T04:23:22.478Z,101427.34
2019-03-19T04:25:55.241Z,101431.25
2019-03-19T04:28:28.131Z,101439.55
2019-03-19T04:31:00.915Z,101441.82
2019-03-19T04:33:33.740Z,101451.34
2019-03-19T04:36:09.446Z,101451.47
2019-03-19T04:38:42.175Z,101447.11
2019-03-19T04:41:15.019Z,101450.16
2019-03-19T04:43:47.718Z,101452.77
2019-03-19T04:46:20.443Z,101448.94
2019-03-19T04:48:53.159Z,101452.43
2019-03-19T04:51:25.985Z,101454.96
2019-03-19T04:53:58.740Z,101455.86
2019-03-19T04:56:31.443Z,101462.93
2019-03-19T04:59:04.176Z,101468.95
2019-03-19T05:01:36.914Z,101478.56
2019-03-19T05:04:09.634Z,101484.26
2019-03-19T05:06:42.478Z,101492.12
2019-03-19T05:09:15.175Z,101493.86
2019-03-19T05:11:47.935Z,101497.81
2019-03-19T05:14:20.665Z,101493.08
2019-03-19T05:16:53.715Z,101495.62
2019-03-19T05:19:26.433Z,101497.48
2019-03-19T05:22:00.888Z,101500.08
2019-03-19T05:24:33.670Z,101505.70
2019-03-19T05:27:06.545Z,101511.89
2019-03-19T05:29:39.346Z,101508.72
2019-03-19T05:32:33.767Z,101512.78
2019-03-19T05:35:09.625Z,101517.43
2019-03-19T05:37:43.983Z,101519.22
2019-03-19T05:40:16.782Z,101524.55
2019-03-19T05:42:49.726Z,101526.94
2019-03-19T05:45:23.984Z,101529.02
2019-03-19T05:47:58.208Z,101531.89
2019-03-19T05:50:31.133Z,101543.58
2019-03-19T05:53:03.998Z,101546.08
2019-03-19T05:55:37.331Z,101551.89
2019-03-19T05:58:10.181Z,101551.59
2019-03-19T06:00:43.424Z,101558.73
2019-03-19T06:03:16.376Z,101558.84
2019-03-19T06:05:49.239Z,101562.24
2019-03-19T06:08:22.025Z,101560.70
2019-03-19T06:10:55.073Z,101565.13
2019-03-19T06:13:27.769Z,101574.52
2019-03-19T06:16:00.497Z,101578.91
2019-03-19T06:18:35.344Z,101580.62
2019-03-19T06:21:07.882Z,101579.80
2019-03-19T06:23:40.737Z,101585.98
2019-03-19T06:26:13.472Z,101581.92
2019-03-19T06:28:46.150Z,101591.31
2019-03-19T06:31:18.927Z,101594.74
2019-03-19T06:33:51.790Z,101604.55
2019-03-19T06:36:24.547Z,101597.98
2019-03-19T06:38:57.245Z,101595.91
2019-03-19T06:41:30.083Z,101604.95
2019-03-19T06:44:03.020Z,101606.22
2019-03-19T06:46:35.871Z,101608.34
2019-03-19T06:49:08.821Z,101611.03
2019-03-19T06:51:42.215Z,101612.38
2019-03-19T06:54:15.064Z,101621.58
2019-03-19T06:56:48.942Z,101622.63
2019-03-19T06:59:21.749Z,101625.67
2019-03-19T07:01:54.598Z,101629.18
2019-03-19T07:04:27.337Z,101627.88
2019-03-19T07:07:00.216Z,101639.91
2019-03-19T07:09:33.046Z,101641.77
2019-03-19T07:12:05.827Z,101643.53
2019-03-19T07:14:38.686Z,101635.70
2019-03-19T07:17:11.527Z,101641.33
2019-03-19T07:19:44.422Z,101648.19
2019-03-19T07:22:17.167Z,101650.17
2019-03-19T07:24:49.949Z,101657.55
2019-03-19T07:27:22.679Z,101651.58
2019-03-19T07:29:55.412Z,101658.22
2019-03-19T07:32:28.333Z,101661.45
2019-03-19T07:35:01.168Z,101660.89
2019-03-19T07:37:33.985Z,101665.40
2019-03-19T07:40:08.895Z,101667.45
2019-03-19T07:42:41.667Z,101666.06
2019-03-19T07:45:15.913Z,101667.52
2019-03-19T07:47:48.680Z,101667.52
2019-03-19T07:50:21.560Z,101661.59
2019-03-19T07:52:54.533Z,101666.07
2019-03-19T07:55:27.402Z,101667.37
2019-03-19T07:58:00.522Z,101666.66
2019-03-19T08:00:33.419Z,101679.03
2019-03-19T08:03:15.641Z,101687.36
2019-03-19T08:05:40.745Z,101685.36
2019-03-19T08:08:13.587Z,101696.19
2019-03-19T08:10:46.406Z,101692.20
2019-03-19T08:13:19.289Z,101701.82
2019-03-19T08:15:52.029Z,101707.05
2019-03-19T08:18:24.885Z,101715.60
2019-03-19T08:20:57.659Z,101717.73
2019-03-19T08:23:30.372Z,101719.93
2019-03-19T08:26:03.298Z,101722.17
2019-03-19T08:28:36.218Z,101724.59
2019-03-19T08:31:09.102Z,101736.84
2019-03-19T08:33:42.220Z,101742.30
2019-03-19T08:36:15.125Z,101752.85
2019-03-19T08:38:47.965Z,101755.80
2019-03-19T08:41:21.788Z,101759.05
2019-03-19T08:43:54.609Z,101757.44
2019-03-19T08:46:29.588Z,101759.96
2019-03-19T08:49:02.369Z,101766.67
2019-03-19T08:51:35.097Z,101766.10
2019-03-19T08:54:07.939Z,101771.81
2019-03-19T08:56:40.714Z,101769.28
2019-03-19T08:59:13.503Z,101767.48
2019-03-19T09:01:47.398Z,101774.61
2019-03-19T09:04:20.880Z,101777.36
2019-03-19T09:06:53.660Z,101784.79
2019-03-19T09:09:26.491Z,101788.41
2019-03-19T09:11:59.426Z,101789.20
2019-03-19T09:14:32.624Z,101786.59
2019-03-19T09:17:05.380Z,101788.97
2019-03-19T09:19:38.231Z,101791.35
2019-03-19T09:22:11.258Z,101793.45
2019-03-19T09:24:45.070Z,101798.27
2019-03-19T09:27:17.945Z,101803.19
2019-03-19T09:29:50.850Z,101806.56
2019-03-19T09:32:23.777Z,101809.73
2019-03-19T09:34:56.793Z,101810.97
2019-03-19T09:37:29.697Z,101813.48
2019-03-19T09:40:02.553Z,101815.27
2019-03-19T09:42:35.455Z,101812.58
2019-03-19T09:45:10.756Z,101812.69
2019-03-19T09:47:44.608Z,101817.22
2019-03-19T09:50:18.929Z,101814.41
2019-03-19T09:52:51.730Z,101820.02
2019-03-19T09:55:24.569Z,101816.34
2019-03-19T09:57:57.568Z,101817.64
2019-03-19T10:00:30.480Z,101816.67
2019-03-19T10:03:03.388Z,101829.27
2019-03-19T10:05:41.480Z,101824.85
2019-03-19T10:08:14.468Z,101832.42
2019-03-19T10:10:47.417Z,101829.31
2019-03-19T10:13:20.575Z,101832.85
2019-03-19T10:15:53.506Z,101831.34
2019-03-19T10:18:26.306Z,101839.45
2019-03-19T10:20:59.253Z,101844.34
2019-03-19T10:23:32.084Z,101838.55
2019-03-19T10:26:04.939Z,101841.47
2019-03-19T10:28:38.072Z,101842.00
2019-03-19T10:31:11.195Z,101847.63
2019-03-19T10:33:44.131Z,101847.53
2019-03-19T10:36:17.100Z,101845.96
2019-03-19T10:38:49.962Z,101850.47
2019-03-19T10:41:22.900Z,101847.88
2019-03-19T10:43:55.648Z,101842.86
2019-03-19T10:46:28.393Z,101847.22
2019-03-19T10:49:01.096Z,101853.50
2019-03-19T10:51:35.305Z,101851.45
2019-03-19T10:54:08.361Z,101857.84
2019-03-19T10:56:41.188Z,101861.72
2019-03-19T10:59:14.133Z,101861.99
2019-03-19T11:01:47.206Z,101864.30
2019-03-19T11:04:20.244Z,101863.67
2019-03-19T11:06:53.023Z,101860.61
2019-03-19T11:09:25.991Z,101861.32
2019-03-19T11:11:58.972Z,101855.02
2019-03-19T11:14:31.841Z,101860.39
2019-03-19T11:17:04.662Z,101850.66
2019-03-19T11:19:38.423Z,101856.41
2019-03-19T11:22:11.332Z,101863.47
2019-03-19T11:24:44.260Z,101865.16
2019-03-19T11:27:17.118Z,101866.34
2019-03-19T11:29:59.499Z,101856.60
2019-03-19T11:32:24.687Z,101863.38
2019-03-19T11:34:57.513Z,101869.12
2019-03-19T11:37:30.322Z,101873.71
2019-03-19T11:40:03.118Z,101880.06
2019-03-19T11:42:36.152Z,101885.09
2019-03-19T11:45:09.714Z,101885.98
2019-03-19T11:47:42.557Z,101883.11
2019-03-19T11:50:18.457Z,101882.39
2019-03-19T11:52:51.267Z,101874.56
2019-03-19T11:55:24.183Z,101878.62
2019-03-19T11:57:57.697Z,101879.40
2019-03-19T12:00:33.885Z,101885.03
2019-03-19T12:03:15.518Z,101881.61
2019-03-19T12:05:41.970Z,101883.66
2019-03-19T12:08:15.046Z,101893.47
2019-03-19T12:10:47.990Z,101883.54
2019-03-19T12:13:28.209Z,101882.20
2019-03-19T12:16:01.118Z,101894.93
2019-03-19T12:18:34.053Z,101887.66
2019-03-19T12:21:06.886Z,101895.05
2019-03-19T12:23:39.615Z,101892.70
2019-03-19T12:26:12.411Z,101891.26
2019-03-19T12:28:48.186Z,101888.63
2019-03-19T12:31:20.959Z,101886.64
2019-03-19T12:33:55.567Z,101883.05
2019-03-19T12:36:28.349Z,101884.90
2019-03-19T12:39:01.271Z,101891.05
2019-03-19T12:41:35.590Z,101888.30
2019-03-19T12:44:08.435Z,101887.27
2019-03-19T12:46:44.340Z,101886.27
2019-03-19T12:49:17.098Z,101890.34
2019-03-19T12:51:50.094Z,101887.53
2019-03-19T12:54:22.801Z,101887.66
2019-03-19T12:56:55.710Z,101884.42
2019-03-19T12:59:28.565Z,101894.52
2019-03-19T13:02:01.450Z,101894.17
2019-03-19T13:04:34.291Z,101897.14
2019-03-19T13:07:07.254Z,101897.68
2019-03-19T13:09:40.249Z,101894.34
2019-03-19T13:12:13.084Z,101896.55
2019-03-19T13:14:45.925Z,101901.98
2019-03-19T13:17:18.684Z,101897.25
2019-03-19T13:19:51.475Z,101899.98
2019-03-19T13:22:24.278Z,101906.67
2019-03-19T13:24:57.083Z,101911.42
2019-03-19T13:27:30.016Z,101915.19
2019-03-19T13:30:02.834Z,101916.56
2019-03-19T13:32:36.229Z,101915.16
2019-03-19T13:35:09.359Z,101913.82
2019-03-19T13:37:42.297Z,101914.88
2019-03-19T13:40:17.288Z,101914.19
2019-03-19T13:42:50.120Z,101924.63
2019-03-19T13:45:23.113Z,101922.53
2019-03-19T13:47:55.896Z,101922.48
2019-03-19T13:50:28.723Z,101924.17
2019-03-19T13:53:01.605Z,101915.42
2019-03-19T13:55:34.616Z,101926.52
2019-03-19T13:58:08.215Z,101929.20
2019-03-19T14:00:41.084Z,101920.84
2019-03-19T14:03:13.830Z,101934.74
2019-03-19T14:05:48.427Z,101928.92
2019-03-19T14:08:21.198Z,101931.95
2019-03-19T14:10:54.662Z,101929.04
2019-03-19T14:13:28.249Z,101929.27
2019-03-19T14:16:01.048Z,101935.91
2019-03-19T14:18:33.894Z,101929.56
2019-03-19T14:21:06.895Z,101931.80
2019-03-19T14:23:39.831Z,101931.00
2019-03-19T14:26:12.668Z,101934.98
2019-03-19T14:28:45.479Z,101935.14
2019-03-19T14:31:18.365Z,101929.70
2019-03-19T14:33:51.322Z,101944.25
2019-03-19T14:36:26.398Z,101937.36
2019-03-19T14:38:59.283Z,101936.36
2019-03-19T14:41:32.456Z,101938.46
2019-03-19T14:44:05.460Z,101940.66
2019-03-19T14:46:38.888Z,101938.79
2019-03-19T14:49:13.539Z,101938.56
2019-03-19T14:51:47.892Z,101940.30
2019-03-19T14:54:23.076Z,101939.56
2019-03-19T14:56:59.807Z,101940.30
2019-03-19T14:59:50.017Z,101947.95
2019-03-19T15:02:26.892Z,101946.89
2019-03-19T15:05:08.897Z,101945.97
2019-03-19T15:07:54.108Z,101945.08
2019-03-19T15:10:25.729Z,101948.20
2019-03-19T15:13:00.011Z,101949.44
2019-03-19T15:15:35.919Z,101944.91
2019-03-19T15:18:09.347Z,101946.34
2019-03-19T15:20:52.957Z,101950.59
2019-03-19T15:23:31.359Z,101949.96
2019-03-19T15:26:04.271Z,101953.42
2019-03-19T15:28:37.068Z,101956.05
2019-03-19T15:31:10.018Z,101954.20
2019-03-19T15:33:42.890Z,101965.03
2019-03-19T15:36:15.758Z,101970.22
2019-03-19T15:38:48.586Z,101974.38
2019-03-19T15:41:21.411Z,101984.88
2019-03-19T15:43:54.320Z,101982.73
2019-03-19T15:46:27.239Z,101987.70
2019-03-19T15:49:00.518Z,101991.76
2019-03-19T15:51:33.478Z,102000.81
2019-03-19T15:54:06.310Z,102000.47
2019-03-19T15:56:39.195Z,102002.37
2019-03-19T15:59:12.011Z,102007.33
2019-03-19T16:01:44.765Z,102004.00
2019-03-19T16:04:22.532Z,102006.05
2019-03-19T16:06:55.738Z,102014.45
2019-03-19T16:09:28.610Z,102008.75
2019-03-19T16:12:01.605Z,102011.45
2019-03-19T16:14:35.534Z,102012.40
2019-03-19T16:17:08.775Z,102013.72
2019-03-19T16:19:41.592Z,102026.09
2019-03-19T16:22:14.868Z,102027.58
2019-03-19T16:24:47.672Z,102031.19
2019-03-19T16:27:22.410Z,102029.22
2019-03-19T16:29:58.224Z,102036.48
2019-03-19T16:32:31.037Z,102037.95
2019-03-19T16:35:04.186Z,102046.16
2019-03-19T16:37:39.611Z,102049.52
2019-03-19T16:40:19.505Z,102050.56
2019-03-19T16:42:52.559Z,102053.13
2019-03-19T16:45:25.442Z,102061.94
2019-03-19T16:47:58.386Z,102059.96
2019-03-19T16:50:31.621Z,102064.71
2019-03-19T16:53:04.649Z,102065.77
2019-03-19T16:55:37.440Z,102070.52
2019-03-19T16:58:10.230Z,102078.45
2019-03-19T17:00:44.590Z,102084.73
2019-03-19T17:03:17.587Z,102083.98
2019-03-19T17:05:52.085Z,102088.55
2019-03-19T17:08:25.606Z,102091.80
2019-03-19T17:10:59.705Z,102095.64
2019-03-19T17:13:32.707Z,102098.81
2019-03-19T17:16:05.660Z,102093.99
2019-03-19T17:18:39.189Z,102101.23
2019-03-19T17:21:11.964Z,102109.83
2019-03-19T17:23:44.899Z,102116.67
2019-03-19T17:26:17.632Z,102114.72
2019-03-19T17:28:51.124Z,102116.50
2019-03-19T17:31:24.089Z,102116.48
2019-03-19T17:33:57.219Z,102126.98
2019-03-19T17:36:30.125Z,102127.48
2019-03-19T17:39:02.969Z,102129.73
2019-03-19T17:41:36.010Z,102129.86
2019-03-19T17:44:08.899Z,102135.29
2019-03-19T17:46:41.695Z,102132.71
2019-03-19T17:49:14.640Z,102139.58
2019-03-19T17:51:47.519Z,102143.36
2019-03-19T17:54:20.391Z,102140.18
2019-03-19T17:56:55.125Z,102145.28
2019-03-19T17:59:30.572Z,102155.08
2019-03-19T18:02:03.573Z,102156.77
2019-03-19T18:04:36.595Z,102161.12
2019-03-19T18:07:09.619Z,102159.37
2019-03-19T18:09:42.712Z,102169.03
2019-03-19T18:12:18.529Z,102170.27
2019-03-19T18:14:51.241Z,102172.24
2019-03-19T18:17:24.305Z,102173.14
2019-03-19T18:19:57.538Z,102175.34
2019-03-19T18:22:30.701Z,102179.67
2019-03-19T18:25:03.645Z,102183.27
2019-03-19T18:27:39.172Z,102185.48
2019-03-19T18:30:13.613Z,102186.56
2019-03-19T18:32:46.685Z,102189.67
2019-03-19T18:35:19.465Z,102191.06
2019-03-19T18:37:52.352Z,102194.16
2019-03-19T18:40:25.257Z,102198.25
2019-03-19T18:42:58.246Z,102201.12
2019-03-19T18:45:30.981Z,102196.22
2019-03-19T18:48:03.883Z,102204.13
2019-03-19T18:50:36.831Z,102206.34
2019-03-19T18:53:09.687Z,102204.59
2019-03-19T18:55:43.158Z,102213.58
2019-03-19T18:58:15.920Z,102212.19
2019-03-19T19:00:49.554Z,102212.09
2019-03-19T19:03:22.400Z,102216.36
2019-03-19T19:05:55.116Z,102221.80
2019-03-19T19:08:27.820Z,102225.16
2019-03-19T19:11:00.621Z,102226.28
2019-03-19T19:13:33.899Z,102234.10
2019-03-19T19:16:06.778Z,102233.11
2019-03-19T19:18:39.534Z,102240.38
2019-03-19T19:21:12.398Z,102244.51
2019-03-19T19:23:46.157Z,102239.55
2019-03-19T19:26:18.980Z,102239.15
2019-03-19T19:28:51.923Z,102239.37
2019-03-19T19:31:24.788Z,102250.78
2019-03-19T19:33:57.870Z,102254.79
2019-03-19T19:36:30.887Z,102256.59
2019-03-19T19:39:07.813Z,102260.16
2019-03-19T19:41:43.807Z,102261.64
2019-03-19T19:44:16.671Z,102265.56
2019-03-19T19:46:49.552Z,102268.81
2019-03-19T19:49:22.544Z,102266.20
2019-03-19T19:51:55.846Z,102264.89
2019-03-19T19:54:35.568Z,102262.78
2019-03-19T19:57:23.093Z,102267.76
2019-03-19T20:00:05.525Z,102267.27
2019-03-19T20:02:45.208Z,102268.14
2019-03-19T20:05:27.697Z,102271.41
2019-03-19T20:08:04.175Z,102274.29
2019-03-19T20:10:37.073Z,102281.77
2019-03-19T20:13:13.766Z,102284.03
2019-03-19T20:15:46.838Z,102283.44
2019-03-19T20:18:19.855Z,102285.78
2019-03-19T20:20:52.866Z,102289.85
2019-03-19T20:23:25.807Z,102291.61
2019-03-19T20:25:58.796Z,102295.27
2019-03-19T20:28:31.809Z,102292.61
2019-03-19T20:31:04.960Z,102298.36
2019-03-19T20:33:38.155Z,102297.41
2019-03-19T20:36:11.410Z,102296.91
2019-03-19T20:38:47.053Z,102307.06
2019-03-19T20:41:20.085Z,102312.47
2019-03-19T20:43:53.062Z,102320.92
2019-03-19T20:46:26.187Z,102323.97
2019-03-19T20:48:59.525Z,102331.95
2019-03-19T20:51:32.821Z,102328.08
2019-03-19T20:54:06.184Z,102333.58
2019-03-19T20:56:39.106Z,102338.89
2019-03-19T20:59:11.897Z,102336.48
2019-03-19T21:01:44.777Z,102335.42
2019-03-19T21:04:17.860Z,102329.31
2019-03-19T21:06:50.769Z,102335.31
2019-03-19T21:09:24.647Z,102345.05
2019-03-19T21:11:57.647Z,102341.34
2019-03-19T21:14:30.487Z,102340.97
2019-03-19T21:17:03.515Z,102338.09
2019-03-19T21:19:37.245Z,102343.59
2019-03-19T21:22:10.078Z,102348.42
2019-03-19T21:24:42.953Z,102352.28
2019-03-19T21:27:15.786Z,102353.89
2019-03-19T21:29:48.775Z,102347.91
2019-03-19T21:32:21.712Z,102351.92
2019-03-19T21:34:54.582Z,102351.81
2019-03-19T21:37:27.522Z,102352.73
2019-03-19T21:40:00.439Z,102356.83
2019-03-19T21:42:33.342Z,102353.05
2019-03-19T21:45:07.589Z,102355.46
2019-03-19T21:47:40.470Z,102361.24
2019-03-19T21:50:14.726Z,102361.06
2019-03-19T21:52:47.587Z,102362.55
2019-03-19T21:55:20.662Z,102364.75
2019-03-19T21:57:53.568Z,102369.25
2019-03-19T22:00:26.536Z,102367.05
2019-03-19T22:02:59.387Z,102376.53
2019-03-19T22:05:32.306Z,102375.05
2019-03-19T22:08:05.054Z,102375.34
2019-03-19T22:10:37.936Z,102373.14
2019-03-19T22:13:10.928Z,102372.63
2019-03-19T22:15:43.773Z,102374.75
2019-03-19T22:18:16.762Z,102384.22
2019-03-19T22:20:49.546Z,102381.61
2019-03-19T22:23:22.323Z,102375.52
2019-03-19T22:25:55.294Z,102368.91
2019-03-19T22:28:28.144Z,102376.20
2019-03-19T22:31:01.117Z,102376.69
2019-03-19T22:33:33.906Z,102376.50
2019-03-19T22:36:06.811Z,102385.87
2019-03-19T22:38:39.804Z,102379.08
2019-03-19T22:41:12.656Z,102386.05
2019-03-19T22:43:45.669Z,102384.66
2019-03-19T22:46:21.973Z,102388.22
2019-03-19T23:46:06.786Z,102421.55
2019-03-19T23:48:39.710Z,102425.12
2019-03-19T23:51:12.549Z,102429.17
2019-03-19T23:53:45.477Z,102427.88
2019-03-19T23:56:18.331Z,102429.80
2019-03-19T23:58:51.169Z,102433.92
